createdAt,value
2023-02-15T00:02:34.180Z,102016.56
2023-02-15T00:07:38.103Z,102015.55
2023-02-15T00:12:43.054Z,102018.94
2023-02-15T00:17:46.919Z,102021.14
2023-02-15T00:22:50.675Z,102014.85
2023-02-15T00:27:54.940Z,102007.67
2023-02-15T00:32:58.696Z,102002.09
2023-02-15T00:38:03.012Z,101997.91
2023-02-15T00:43:07.752Z,101992.34
2023-02-15T00:48:12.895Z,101991.61
2023-02-15T00:53:16.998Z,101994.80
2023-02-15T00:58:20.862Z,101998.11
2023-02-15T01:03:24.698Z,101994.75
2023-02-15T01:08:29.048Z,101998.36
2023-02-15T01:13:33.584Z,101998.58
2023-02-15T01:18:37.540Z,101990.91
2023-02-15T01:23:42.813Z,101983.42
2023-02-15T01:28:46.932Z,101976.84
2023-02-15T01:33:50.715Z,101971.27
2023-02-15T01:38:55.495Z,101959.56
2023-02-15T01:44:01.477Z,101951.79
2023-02-15T01:49:20.626Z,101949.27
2023-02-15T01:54:37.262Z,101945.59
2023-02-15T01:59:44.897Z,101943.42
2023-02-15T02:04:50.975Z,101941.77
2023-02-15T02:09:56.164Z,101939.39
2023-02-15T02:15:02.117Z,101933.94
2023-02-15T02:20:48.386Z,101921.84
2023-02-15T02:26:25.646Z,101915.86
2023-02-15T02:32:11.148Z,101910.89
2023-02-15T02:37:40.809Z,101903.09
2023-02-15T02:43:13.127Z,101895.61
2023-02-15T02:48:21.771Z,101883.98
2023-02-15T02:53:27.632Z,101883.11
2023-02-15T02:59:00.036Z,101876.27
2023-02-15T03:04:13.896Z,101878.31
2023-02-15T03:09:25.559Z,101875.08
2023-02-15T03:14:29.783Z,101872.01
2023-02-15T03:19:35.954Z,101869.64
2023-02-15T03:25:18.784Z,101870.85
2023-02-15T03:30:30.152Z,101865.23
2023-02-15T03:35:47.224Z,101869.85
2023-02-15T03:41:10.639Z,101865.29
2023-02-15T03:46:22.841Z,101864.95
2023-02-15T03:51:39.263Z,101865.63
2023-02-15T03:57:04.051Z,101861.56
2023-02-15T04:02:22.551Z,101859.84
2023-02-15T04:07:26.846Z,101860.16
2023-02-15T04:12:30.627Z,101855.23
2023-02-15T04:17:34.613Z,101852.34
2023-02-15T04:22:56.974Z,101841.26
2023-02-15T04:28:01.330Z,101829.77
2023-02-15T04:33:05.288Z,101829.02
2023-02-15T04:38:09.107Z,101830.84
2023-02-15T04:43:12.895Z,101831.50
2023-02-15T04:48:20.558Z,101827.88
2023-02-15T04:53:24.276Z,101832.13
2023-02-15T04:58:29.310Z,101829.73
2023-02-15T05:03:33.450Z,101835.86
2023-02-15T05:08:37.534Z,101842.48
2023-02-15T05:13:41.171Z,101840.24
2023-02-15T05:18:45.272Z,101830.02
2023-02-15T05:23:49.063Z,101826.41
2023-02-15T05:28:52.817Z,101822.02
2023-02-15T05:33:56.629Z,101822.23
2023-02-15T05:39:00.959Z,101822.90
2023-02-15T05:44:04.809Z,101816.05
2023-02-15T05:49:09.275Z,101815.75
2023-02-15T05:54:15.988Z,101815.95
2023-02-15T05:59:20.961Z,101811.52
2023-02-15T06:04:24.848Z,101816.45
2023-02-15T06:09:28.589Z,101818.84
2023-02-15T06:14:35.555Z,101815.27
2023-02-15T06:19:42.279Z,101820.04
2023-02-15T06:24:46.076Z,101824.65
2023-02-15T06:29:49.787Z,101830.60
2023-02-15T06:34:53.665Z,101829.88
2023-02-15T06:40:03.221Z,101827.58
2023-02-15T06:45:10.913Z,101827.14
2023-02-15T06:50:14.619Z,101827.04
2023-02-15T06:55:18.576Z,101829.83
2023-02-15T07:00:24.395Z,101828.83
2023-02-15T07:05:33.064Z,101830.73
2023-02-15T07:10:36.823Z,101826.45
2023-02-15T07:15:40.609Z,101814.50
2023-02-15T07:20:44.425Z,101806.47
2023-02-15T07:25:48.178Z,101807.15
2023-02-15T07:30:52.791Z,101798.89
2023-02-15T07:36:02.552Z,101799.55
2023-02-15T07:41:08.989Z,101795.20
2023-02-15T07:46:15.148Z,101795.48
2023-02-15T07:51:19.011Z,101788.38
2023-02-15T07:56:22.646Z,101780.30
2023-02-15T08:01:32.482Z,101774.64
2023-02-15T08:06:38.692Z,101773.30
2023-02-15T08:11:42.853Z,101770.04
2023-02-15T08:16:51.711Z,101767.45
2023-02-15T08:22:06.933Z,101761.59
2023-02-15T08:27:12.531Z,101753.10
2023-02-15T08:32:16.502Z,101745.80
2023-02-15T08:37:20.449Z,101741.01
2023-02-15T08:42:24.388Z,101736.83
2023-02-15T08:47:28.197Z,101734.08
2023-02-15T08:52:32.464Z,101729.63
2023-02-15T08:57:36.214Z,101730.39
2023-02-15T09:02:40.071Z,101731.51
2023-02-15T09:07:43.866Z,101728.59
2023-02-15T09:12:47.749Z,101724.77
2023-02-15T09:17:51.663Z,101720.48
2023-02-15T09:22:58.080Z,101716.54
2023-02-15T09:28:02.791Z,101710.86
2023-02-15T09:33:06.457Z,101706.62
2023-02-15T09:38:13.205Z,101703.33
2023-02-15T09:43:44.906Z,101700.42
2023-02-15T09:48:55.950Z,101701.42
2023-02-15T09:54:28.523Z,101697.73
2023-02-15T09:59:35.819Z,101696.03
2023-02-15T10:04:58.737Z,101685.56
2023-02-15T10:10:28.650Z,101685.30
2023-02-15T10:15:40.135Z,101675.34
2023-02-15T10:21:04.692Z,101673.76
2023-02-15T10:26:18.450Z,101666.23
2023-02-15T10:31:32.358Z,101656.81
2023-02-15T10:36:41.905Z,101649.94
2023-02-15T10:42:08.646Z,101643.18
2023-02-15T10:47:39.977Z,101638.70
2023-02-15T10:53:28.012Z,101634.27
2023-02-15T10:59:09.299Z,101629.30
2023-02-15T11:04:40.427Z,101621.02
2023-02-15T11:09:49.867Z,101614.42
2023-02-15T11:14:58.068Z,101612.05
2023-02-15T11:20:17.259Z,101601.96
2023-02-15T11:25:26.027Z,101591.70
2023-02-15T11:30:46.125Z,101586.23
2023-02-15T11:36:00.791Z,101586.02
2023-02-15T11:41:11.700Z,101579.57
2023-02-15T11:46:16.294Z,101567.77
2023-02-15T11:51:23.958Z,101553.77
2023-02-15T11:56:27.996Z,101546.08
2023-02-15T12:01:39.675Z,101544.50
2023-02-15T12:06:50.097Z,101540.16
2023-02-15T12:11:54.781Z,101535.11
2023-02-15T12:16:58.771Z,101533.59
2023-02-15T12:22:04.218Z,101531.80
2023-02-15T12:27:17.045Z,101520.46
2023-02-15T12:32:26.364Z,101523.95
2023-02-15T12:37:33.990Z,101517.90
2023-02-15T12:42:46.229Z,101513.49
2023-02-15T12:48:17.181Z,101505.52
2023-02-15T12:53:25.711Z,101501.58
2023-02-15T12:58:31.774Z,101494.32
2023-02-15T13:03:36.682Z,101488.41
2023-02-15T13:08:53.264Z,101486.13
2023-02-15T13:13:59.979Z,101482.45
2023-02-15T13:19:35.072Z,101478.45
2023-02-15T13:24:45.551Z,101474.02
2023-02-15T13:30:00.847Z,101466.16
2023-02-15T13:35:08.403Z,101464.27
2023-02-15T13:40:17.396Z,101461.77
2023-02-15T13:45:57.152Z,101455.29
2023-02-15T13:51:14.932Z,101451.40
2023-02-15T13:56:46.266Z,101443.84
2023-02-15T14:02:00.402Z,101444.05
2023-02-15T14:07:28.443Z,101436.16
2023-02-15T14:13:12.239Z,101438.27
2023-02-15T14:18:38.924Z,101439.66
2023-02-15T14:24:31.496Z,101434.12
2023-02-15T14:29:46.924Z,101435.27
2023-02-15T14:34:54.736Z,101431.50
2023-02-15T14:40:55.704Z,101430.19
2023-02-15T14:46:33.261Z,101423.44
2023-02-15T14:52:09.370Z,101425.40
2023-02-15T14:57:14.394Z,101424.48
2023-02-15T15:03:05.781Z,101420.57
2023-02-15T15:08:24.309Z,101419.20
2023-02-15T15:20:08.585Z,101415.88
2023-02-15T15:25:32.633Z,101414.96
2023-02-15T15:30:36.441Z,101420.23
2023-02-15T15:35:58.776Z,101418.84
2023-02-15T15:41:31.775Z,101410.40
2023-02-15T15:47:30.248Z,101405.69
2023-02-15T15:52:40.746Z,101402.70
2023-02-15T15:57:47.957Z,101399.14
2023-02-15T16:02:54.507Z,101398.85
2023-02-15T16:07:59.224Z,101398.52
2023-02-15T16:13:04.393Z,101399.15
2023-02-15T16:18:16.853Z,101400.85
2023-02-15T16:23:56.246Z,101389.80
2023-02-15T16:29:01.278Z,101385.27
2023-02-15T16:34:16.746Z,101385.73
2023-02-15T16:39:22.973Z,101384.07
2023-02-15T16:44:34.889Z,101378.06
2023-02-15T16:49:40.901Z,101377.85
2023-02-15T16:54:46.905Z,101375.52
2023-02-15T16:59:54.181Z,101376.77
2023-02-15T17:05:15.545Z,101380.95
2023-02-15T17:10:40.732Z,101377.50
2023-02-15T17:16:09.148Z,101369.28
2023-02-15T17:21:19.836Z,101364.27
2023-02-15T17:26:31.683Z,101364.23
2023-02-15T17:31:38.944Z,101358.34
2023-02-15T17:37:04.245Z,101358.77
2023-02-15T17:42:09.903Z,101351.60
2023-02-15T17:47:22.790Z,101345.90
2023-02-15T17:52:29.708Z,101337.95
2023-02-15T17:57:35.830Z,101335.20
2023-02-15T18:03:02.057Z,101333.81
2023-02-15T18:08:34.360Z,101324.80
2023-02-15T18:13:39.664Z,101324.45
2023-02-15T18:18:46.892Z,101325.52
2023-02-15T18:23:54.630Z,101325.72
2023-02-15T18:29:01.186Z,101330.40
2023-02-15T18:34:47.957Z,101327.85
2023-02-15T18:39:55.356Z,101318.23
2023-02-15T18:45:38.865Z,101318.46
2023-02-15T18:50:46.897Z,101316.33
2023-02-15T18:55:53.622Z,101323.53
2023-02-15T19:01:03.714Z,101317.36
2023-02-15T19:06:18.576Z,101311.84
2023-02-15T19:11:28.489Z,101299.92
2023-02-15T19:16:38.812Z,101291.10
2023-02-15T19:21:49.168Z,101288.62
2023-02-15T19:26:56.561Z,101289.02
2023-02-15T19:32:04.199Z,101286.97
2023-02-15T19:37:27.959Z,101286.77
2023-02-15T19:42:36.521Z,101284.16
2023-02-15T19:47:42.877Z,101283.14
2023-02-15T19:52:49.269Z,101281.40
2023-02-15T19:57:58.283Z,101274.85
2023-02-15T20:03:08.161Z,101266.32
2023-02-15T20:08:23.609Z,101261.48
2023-02-15T20:13:35.716Z,101263.54
2023-02-15T20:18:49.346Z,101265.89
2023-02-15T20:23:58.652Z,101257.83
2023-02-15T20:29:04.402Z,101255.40
2023-02-15T20:34:12.380Z,101259.80
2023-02-15T20:39:21.517Z,101255.30
2023-02-15T20:44:32.420Z,101251.98
2023-02-15T20:49:39.440Z,101251.54
2023-02-15T20:54:45.803Z,101250.89
2023-02-15T20:59:52.681Z,101249.88
2023-02-15T21:04:59.107Z,101248.96
2023-02-15T21:10:07.068Z,101253.38
2023-02-15T21:15:42.202Z,101251.90
2023-02-15T21:20:50.783Z,101252.23
2023-02-15T21:26:01.488Z,101241.77
2023-02-15T21:31:13.751Z,101239.42
2023-02-15T21:36:24.064Z,101242.45
2023-02-15T21:41:48.515Z,101233.52
2023-02-15T21:47:13.211Z,101232.59
2023-02-15T21:52:23.330Z,101233.80
2023-02-15T21:57:28.023Z,101229.90
2023-02-15T22:02:34.602Z,101224.23
2023-02-15T22:07:39.784Z,101212.27
2023-02-15T22:12:44.260Z,101207.69
2023-02-15T22:17:49.225Z,101206.06
2023-02-15T22:22:54.660Z,101208.27
2023-02-15T22:27:58.349Z,101208.75
2023-02-15T22:33:02.178Z,101209.11
2023-02-15T22:38:06.721Z,101201.66
2023-02-15T22:43:23.079Z,101192.41
2023-02-15T22:48:27.846Z,101190.48
2023-02-15T22:53:31.863Z,101187.40
2023-02-15T22:58:35.818Z,101178.06
2023-02-15T23:03:41.420Z,101171.52
2023-02-15T23:08:47.528Z,101186.66
2023-02-15T23:13:51.705Z,101188.27
2023-02-15T23:18:56.258Z,101190.90
2023-02-15T23:24:15.420Z,101189.36
2023-02-15T23:29:22.052Z,101188.55
2023-02-15T23:34:32.039Z,101185.61
2023-02-15T23:39:54.462Z,101189.33
2023-02-15T23:44:58.851Z,101187.71
2023-02-15T23:50:02.898Z,101190.47
2023-02-15T23:55:06.945Z,101192.38
